Time;durP1;ratioP1;P1;durP2;ratioP2;P2;SDS_P1;SDS_P2;PMS_P1;PMS_P2;Temp;Humidity;BMP_temperature;BMP_pressure;BME280_temperature;BME280_humidity;BME280_pressure;Samples;Min_cycle;Max_cycle;Signal;HPM_P1;HPM_P2
2022/10/04 05:36:05;;;;;;;;;;;;;;;17.01;70.59;97379.44;4238897;22;10353;-74
2022/10/04 05:38:22;;;;;;;;;;;;;;;17.30;70.00;97386.75;4185546;28;5733;-72
2022/10/04 05:40:37;;;;;;;;;;;;;;;17.54;69.57;97381.56;4187215;28;5715;-73
2022/10/04 05:42:44;;;;;;;;;;;;;;;17.71;69.24;97382.63;4184667;28;5827;-72
2022/10/04 05:44:51;;;;;;;;;;;;;;;17.85;68.85;97389.44;4185819;28;5875;-79
2022/10/04 05:46:57;;;;;;;;;;;;;;;17.95;68.75;97383.56;4187670;28;5634;-78
2022/10/04 05:49:08;;;;;;;;;;;;;;;18.02;68.33;97387.00;4186211;28;5735;-75
2022/10/04 05:51:19;;;;;;;;;;;;;;;18.11;68.05;97400.84;4185003;28;5140;-72
2022/10/04 05:53:32;;;;;;;;;;;;;;;18.16;68.04;97393.78;4184427;28;5874;-72
2022/10/04 05:55:49;;;;;;;;;;;;;;;18.22;67.69;97389.38;4186825;28;6782;-73
2022/10/04 05:58:18;;;;;;;;;;;;;;;18.26;67.79;97387.91;4185027;28;5885;-72
2022/10/04 06:00:23;;;;;;;;;;;;;;;18.31;67.54;97388.84;4192894;28;5707;-73
2022/10/04 06:02:39;;;;;;;;;;;;;;;18.34;67.27;97388.38;4195498;28;5805;-73
2022/10/04 06:04:55;;;;;;;;;;;;;;;18.40;67.30;97393.88;4193156;28;5850;-72
2022/10/04 06:07:04;;;;;;;;;;;;;;;18.42;67.07;97389.91;4192007;28;5707;-73
2022/10/04 06:09:16;;;;;;;;;;;;;;;18.47;67.02;97394.59;4181203;28;5744;-73
2022/10/04 06:11:33;;;;;;;;;;;;;;;18.49;66.84;97389.84;4185858;28;5723;-73
2022/10/04 06:14:08;;;;;;;;;;;;;;;18.49;66.80;97387.97;4196981;28;6598;-73
2022/10/04 06:16:22;;;;;;;;;;;;;;;18.51;66.86;97383.19;4168015;28;5758;-73
2022/10/04 06:19:13;;;;;;;;;;;;;;;18.51;66.62;97390.41;4193971;28;5707;-73
2022/10/04 06:21:21;;;;;;;;;;;;;;;18.52;66.63;97398.22;4161071;28;6518;-72
2022/10/04 06:23:28;;;;;;;;;;;;;;;18.55;66.46;97394.25;4134796;28;6520;-73
2022/10/04 06:25:37;;;;;;;;;;;;;;;18.56;66.48;97396.69;4160357;28;5894;-73
2022/10/04 06:27:45;;;;;;;;;;;;;;;18.59;66.27;97400.81;4152618;28;5899;-73
2022/10/04 06:29:54;;;;;;;;;;;;;;;18.60;66.31;97397.09;4149625;28;6068;-73
2022/10/04 06:32:18;;;;;;;;;;;;;;;18.60;66.14;97399.75;4158876;28;5846;-73
2022/10/04 06:34:46;;;;;;;;;;;;;;;18.61;66.08;97404.88;4152455;28;5773;-73
2022/10/04 06:37:14;;;;;;;;;;;;;;;18.61;65.91;97394.16;4149070;28;5864;-73
2022/10/04 06:39:36;;;;;;;;;;;;;;;18.67;65.67;97405.84;4145724;28;5868;-73
2022/10/04 06:41:52;;;;;;;;;;;;;;;18.72;65.75;97405.16;4150084;28;5845;-73
2022/10/04 06:44:23;;;;;;;;;;;;;;;18.76;65.68;97403.66;4135949;28;5897;-73
2022/10/04 06:46:31;;;;;;;;;;;;;;;18.75;65.47;97402.84;4146196;28;5792;-73
2022/10/04 06:48:58;;;;;;;;;;;;;;;18.75;65.54;97415.41;4149911;28;5951;-73
2022/10/04 06:51:13;;;;;;;;;;;;;;;18.76;65.24;97412.50;4134381;28;5909;-72
2022/10/04 06:53:28;;;;;;;;;;;;;;;18.79;65.28;97416.56;4134347;28;5803;-73
2022/10/04 06:55:48;;;;;;;;;;;;;;;18.81;64.98;97417.19;4161695;28;5708;-73
2022/10/04 06:58:12;;;;;;;;;;;;;;;18.83;65.09;97415.91;4183953;28;5794;-72
2022/10/04 07:00:20;;;;;;;;;;;;;;;18.84;65.07;97422.06;4183269;28;5723;-72
2022/10/04 07:02:30;;;;;;;;;;;;;;;18.82;64.82;97433.03;4179746;28;5715;-73
2022/10/04 07:04:40;;;;;;;;;;;;;;;18.84;64.87;97432.78;4183412;28;5881;-73
2022/10/04 07:07:34;;;;;;;;;;;;;;;18.84;64.64;97435.47;4185156;28;5720;-73
2022/10/04 07:09:40;;;;;;;;;;;;;;;18.84;64.33;97435.47;4188047;28;5703;-73
2022/10/04 07:11:53;;;;;;;;;;;;;;;18.87;64.49;97429.66;4176395;28;5711;-73
2022/10/04 07:14:05;;;;;;;;;;;;;;;18.87;64.28;97437.69;4185067;28;5922;-73
2022/10/04 07:16:25;;;;;;;;;;;;;;;18.86;64.31;97436.06;4183729;28;5715;-73
2022/10/04 07:18:35;;;;;;;;;;;;;;;18.88;64.32;97437.44;4179381;28;7019;-73
2022/10/04 07:20:38;;;;;;;;;;;;;;;18.91;64.07;97425.44;4186781;28;5703;-73
2022/10/04 07:22:49;;;;;;;;;;;;;;;18.92;64.12;97439.69;4183052;28;5751;-73
2022/10/04 07:25:02;;;;;;;;;;;;;;;18.89;64.27;97438.25;4177665;28;5699;-73
2022/10/04 07:27:09;;;;;;;;;;;;;;;18.91;64.06;97452.25;4184067;28;5743;-73
2022/10/04 07:29:20;;;;;;;;;;;;;;;18.92;64.07;97448.53;4184419;28;5740;-73
2022/10/04 07:31:27;;;;;;;;;;;;;;;18.93;63.80;97450.16;4185066;28;5699;-73
2022/10/04 07:33:34;;;;;;;;;;;;;;;18.93;63.83;97449.34;4182787;28;5790;-73
2022/10/04 07:35:46;;;;;;;;;;;;;;;18.92;63.70;97453.09;4181613;28;5748;-73
2022/10/04 07:37:56;;;;;;;;;;;;;;;18.93;63.56;97455.53;4177784;28;5727;-73
2022/10/04 07:40:09;;;;;;;;;;;;;;;18.93;63.93;97452.84;4184166;28;5728;-72
2022/10/04 07:42:24;;;;;;;;;;;;;;;18.97;63.82;97453.19;4183031;28;5744;-73
2022/10/04 07:44:35;;;;;;;;;;;;;;;18.98;63.41;97455.66;4181085;28;5715;-73
2022/10/04 07:46:46;;;;;;;;;;;;;;;19.00;63.76;97461.59;4182793;28;5738;-72
2022/10/04 07:48:49;;;;;;;;;;;;;;;19.00;63.46;97460.78;4182415;28;5824;-72
2022/10/04 07:51:02;;;;;;;;;;;;;;;19.01;63.44;97465.06;4185978;28;5654;-72
2022/10/04 07:53:09;;;;;;;;;;;;;;;18.99;63.31;97468.00;4184914;28;5721;-72
2022/10/04 07:55:22;;;;;;;;;;;;;;;18.99;63.26;97459.13;4180083;28;5806;-74
2022/10/04 07:57:32;;;;;;;;;;;;;;;19.01;63.40;97465.91;4183570;28;5886;-72
2022/10/04 07:59:47;;;;;;;;;;;;;;;19.01;63.36;97457.84;4182289;28;5743;-72
2022/10/04 08:02:00;;;;;;;;;;;;;;;19.02;63.08;97464.84;4167971;28;5861;-72
2022/10/04 08:04:18;;;;;;;;;;;;;;;19.04;63.36;97468.13;4178926;28;5759;-72
2022/10/04 08:06:31;;;;;;;;;;;;;;;19.04;63.21;97464.63;4184075;28;5712;-73
2022/10/04 08:08:49;;;;;;;;;;;;;;;19.06;62.71;97457.19;4177515;28;5729;-73
2022/10/04 08:11:05;;;;;;;;;;;;;;;19.10;62.91;97466.38;4176570;28;5794;-73
2022/10/04 08:13:18;;;;;;;;;;;;;;;19.09;62.67;97473.59;4183471;28;5711;-73
2022/10/04 08:15:36;;;;;;;;;;;;;;;19.14;62.71;97471.06;4184182;28;5789;-73
2022/10/04 08:17:53;;;;;;;;;;;;;;;19.15;62.74;97461.97;4183440;28;5708;-73
2022/10/04 08:20:12;;;;;;;;;;;;;;;19.17;62.72;97467.09;4173991;28;5897;-72
2022/10/04 08:22:34;;;;;;;;;;;;;;;19.17;62.81;97457.19;4180322;28;5715;-73
2022/10/04 08:24:48;;;;;;;;;;;;;;;19.21;62.61;97468.25;4187379;28;5848;-73
2022/10/04 08:27:16;;;;;;;;;;;;;;;19.23;62.52;97459.97;4182915;28;5719;-73
2022/10/04 08:29:52;;;;;;;;;;;;;;;19.25;62.29;97463.25;4171214;28;5711;-72
2022/10/04 08:32:05;;;;;;;;;;;;;;;19.26;62.67;97467.59;4177700;28;5815;-73
2022/10/04 08:34:22;;;;;;;;;;;;;;;19.27;62.37;97472.72;4180217;28;5732;-72
2022/10/04 08:36:38;;;;;;;;;;;;;;;19.29;62.41;97464.44;4172874;28;5700;-73
2022/10/04 08:38:48;;;;;;;;;;;;;;;19.31;62.32;97470.38;4175194;28;5712;-72
2022/10/04 08:41:26;;;;;;;;;;;;;;;19.30;62.25;97466.06;4183149;28;5261;-72
2022/10/04 08:43:48;;;;;;;;;;;;;;;19.31;62.35;97468.50;4150827;28;5723;-72
2022/10/04 08:46:24;;;;;;;;;;;;;;;19.33;62.27;97473.63;4176534;28;5715;-72
2022/10/04 08:48:56;;;;;;;;;;;;;;;19.31;61.98;97483.78;4171650;28;5749;-72
2022/10/04 08:51:27;;;;;;;;;;;;;;;19.32;62.22;97488.09;4175380;28;5715;-72
2022/10/04 08:54:03;;;;;;;;;;;;;;;19.33;61.99;97487.03;4189411;28;5870;-72
2022/10/04 08:56:14;;;;;;;;;;;;;;;19.34;61.88;97475.25;4178966;28;5704;-72
2022/10/04 08:58:52;;;;;;;;;;;;;;;19.37;62.02;97482.88;4180980;28;5711;-73
2022/10/04 09:01:28;;;;;;;;;;;;;;;19.44;61.40;97483.53;4172493;28;6206;-73
2022/10/04 09:04:16;;;;;;;;;;;;;;;19.48;61.33;97495.47;4175747;28;5806;-73
2022/10/04 09:06:35;;;;;;;;;;;;;;;19.49;61.39;97491.72;4170319;28;5715;-73
2022/10/04 09:09:34;;;;;;;;;;;;;;;19.47;61.46;97488.44;4179540;28;6424;-74
2022/10/04 09:12:06;;;;;;;;;;;;;;;19.55;61.58;97490.81;4181431;28;5790;-73
2022/10/04 09:14:30;;;;;;;;;;;;;;;19.61;61.26;97492.56;4167978;28;5708;-74
2022/10/04 09:16:44;;;;;;;;;;;;;;;19.67;61.38;97493.50;4188456;28;5699;-73
2022/10/04 09:18:59;;;;;;;;;;;;;;;19.69;61.27;97494.88;4175359;28;5711;-74
2022/10/04 09:21:10;;;;;;;;;;;;;;;19.71;61.12;97495.50;4184467;28;5941;-73
2022/10/04 09:24:20;;;;;;;;;;;;;;;19.71;61.31;97503.53;4182950;28;5727;-75
2022/10/04 09:26:36;;;;;;;;;;;;;;;19.72;61.21;97502.47;4182172;28;5682;-75
2022/10/04 09:29:12;;;;;;;;;;;;;;;19.71;60.91;97506.22;4176115;28;5848;-75
2022/10/04 09:32:03;;;;;;;;;;;;;;;19.71;61.12;97508.09;4178478;28;5721;-75
2022/10/04 09:34:27;;;;;;;;;;;;;;;19.69;61.14;97507.47;4122645;28;5875;-75
2022/10/04 09:37:06;;;;;;;;;;;;;;;19.67;60.73;97513.06;4131823;28;5826;-75
2022/10/04 09:39:38;;;;;;;;;;;;;;;19.65;60.91;97509.81;4126559;28;5818;-74
2022/10/04 09:42:13;;;;;;;;;;;;;;;19.64;60.65;97507.38;4118468;28;5870;-75
2022/10/04 09:44:45;;;;;;;;;;;;;;;19.66;60.67;97502.59;4126869;28;5890;-75
2022/10/04 09:47:07;;;;;;;;;;;;;;;19.65;60.52;97507.13;4130911;28;5909;-75
2022/10/04 09:49:35;;;;;;;;;;;;;;;19.62;60.40;97506.78;4124404;28;6220;-74
2022/10/04 09:52:07;;;;;;;;;;;;;;;19.60;60.54;97506.22;4124944;28;7764;-75
2022/10/04 09:54:44;;;;;;;;;;;;;;;19.60;60.63;97504.34;4127798;28;5823;-74
2022/10/04 09:57:02;;;;;;;;;;;;;;;19.59;60.33;97507.25;4121614;28;5810;-74
2022/10/04 09:59:35;;;;;;;;;;;;;;;19.58;60.41;97511.78;4132154;28;5804;-75
2022/10/04 10:01:46;;;;;;;;;;;;;;;19.59;60.25;97507.25;4130082;28;5804;-74
2022/10/04 10:04:25;;;;;;;;;;;;;;;19.59;60.12;97508.06;4127301;28;5875;-74
2022/10/04 10:06:50;;;;;;;;;;;;;;;19.60;60.15;97509.72;4173707;28;5771;-75
2022/10/04 10:09:07;;;;;;;;;;;;;;;19.58;60.24;97517.16;4176155;28;5835;-75
2022/10/04 10:14:01;;;;;;;;;;;;;;;19.60;60.04;97515.09;4185315;28;5794;-74
2022/10/04 10:16:08;;;;;;;;;;;;;;;19.61;60.07;97513.22;4175240;28;5865;-75
2022/10/04 10:18:22;;;;;;;;;;;;;;;19.60;59.92;97512.41;4186077;28;5678;-75
2022/10/04 10:20:49;;;;;;;;;;;;;;;19.63;59.73;97516.47;4192570;28;5654;-74
2022/10/04 10:23:25;;;;;;;;;;;;;;;19.65;59.63;97511.69;4183621;28;5738;-74
2022/10/04 10:25:40;;;;;;;;;;;;;;;19.66;59.73;97527.53;4185529;28;5839;-74
2022/10/04 10:28:04;;;;;;;;;;;;;;;19.65;59.95;97517.06;4185831;28;5715;-79
2022/10/04 10:30:19;;;;;;;;;;;;;;;19.67;59.60;97521.13;4184587;28;5814;-74
2022/10/04 10:32:41;;;;;;;;;;;;;;;19.68;59.90;97517.41;4184613;28;5771;-74
2022/10/04 10:35:24;;;;;;;;;;;;;;;19.69;59.70;97518.22;4169788;28;5749;-74
2022/10/04 10:37:41;;;;;;;;;;;;;;;19.71;59.93;97511.59;4116244;28;5826;-74
2022/10/04 10:40:08;;;;;;;;;;;;;;;19.70;59.65;97520.66;4103642;28;5911;-77
2022/10/04 10:42:29;;;;;;;;;;;;;;;19.70;59.63;97517.97;4118436;28;5984;-74
2022/10/04 10:45:08;;;;;;;;;;;;;;;19.69;59.71;97524.38;4117714;28;5921;-74
2022/10/04 10:47:29;;;;;;;;;;;;;;;19.71;59.39;97521.50;4117412;28;5833;-74
2022/10/04 10:49:44;;;;;;;;;;;;;;;19.75;59.26;97514.59;4108454;28;5856;-74
2022/10/04 10:52:19;;;;;;;;;;;;;;;19.75;59.32;97517.28;4109026;28;5875;-74
2022/10/04 10:54:49;;;;;;;;;;;;;;;19.74;59.45;97516.47;4106856;28;6063;-74
2022/10/04 10:56:59;;;;;;;;;;;;;;;19.70;59.23;97515.28;4110161;28;5971;-73
2022/10/04 10:59:48;;;;;;;;;;;;;;;19.70;59.05;97515.28;4117122;28;5927;-74
2022/10/04 11:02:25;;;;;;;;;;;;;;;19.68;59.08;97506.66;4109883;28;5817;-73
2022/10/04 11:05:05;;;;;;;;;;;;;;;19.66;59.11;97503.41;4091532;28;5956;-73
2022/10/04 11:07:52;;;;;;;;;;;;;;;19.62;59.05;97504.94;4116039;28;5069;-74
2022/10/04 11:10:28;;;;;;;;;;;;;;;19.67;58.87;97504.22;4097763;28;5826;-75
2022/10/04 11:13:07;;;;;;;;;;;;;;;19.70;58.90;97503.75;4177992;28;5878;-75
2022/10/04 11:15:33;;;;;;;;;;;;;;;19.71;58.47;97505.41;4173381;28;5922;-74
2022/10/04 11:18:04;;;;;;;;;;;;;;;19.67;58.60;97496.97;4175874;28;5870;-75
2022/10/04 11:20:34;;;;;;;;;;;;;;;19.66;58.66;97494.53;4171285;28;5723;-75
2022/10/04 11:23:13;;;;;;;;;;;;;;;19.65;58.49;97499.09;4182988;28;5836;-75
2022/10/04 11:25:49;;;;;;;;;;;;;;;19.63;58.45;97498.50;4185357;28;5806;-78
2022/10/04 11:28:02;;;;;;;;;;;;;;;19.64;58.34;97493.97;4166314;28;6644;-76
2022/10/04 11:30:23;;;;;;;;;;;;;;;19.61;58.39;97489.88;4176157;28;5719;-76
2022/10/04 11:32:53;;;;;;;;;;;;;;;19.65;58.47;97479.50;4182908;28;5703;-77
2022/10/04 11:35:38;;;;;;;;;;;;;;;19.71;58.33;97482.06;4175164;28;5732;-75
2022/10/04 11:37:56;;;;;;;;;;;;;;;19.72;58.22;97486.38;4174205;28;6026;-77
2022/10/04 11:40:25;;;;;;;;;;;;;;;19.72;58.16;97483.69;4174291;28;5725;-76
2022/10/04 11:42:43;;;;;;;;;;;;;;;19.76;58.27;97489.41;4175893;28;5715;-76
2022/10/04 11:45:26;;;;;;;;;;;;;;;19.77;57.89;97494.53;4178244;28;5811;-76
2022/10/04 11:47:40;;;;;;;;;;;;;;;19.79;58.17;97491.63;4115046;28;5726;-76
2022/10/04 11:49:55;;;;;;;;;;;;;;;19.79;57.77;97478.19;4119876;28;5778;-76
2022/10/04 11:52:28;;;;;;;;;;;;;;;19.81;58.01;97483.31;4117462;28;5725;-76
2022/10/04 11:55:09;;;;;;;;;;;;;;;19.82;58.00;97479.59;4102686;28;5837;-76
2022/10/04 11:57:24;;;;;;;;;;;;;;;19.85;57.79;97477.28;4073318;29;6062;-77
2022/10/04 11:59:46;;;;;;;;;;;;;;;19.89;58.03;97474.94;4077404;29;5892;-76
2022/10/04 12:02:17;;;;;;;;;;;;;;;19.88;57.65;97468.75;4061657;29;6034;-76
2022/10/04 12:05:15;;;;;;;;;;;;;;;19.87;57.62;97463.63;4037959;29;5113;-76
2022/10/04 12:07:38;;;;;;;;;;;;;;;19.88;57.78;97466.06;4023874;29;6063;-76
2022/10/04 12:09:49;;;;;;;;;;;;;;;19.88;57.78;97467.94;4036603;29;5903;-76
2022/10/04 12:14:50;;;;;;;;;;;;;;;19.92;57.42;97453.78;4039166;29;5966;-76
2022/10/04 12:17:46;;;;;;;;;;;;;;;19.93;57.45;97454.59;4038541;29;5889;-76
2022/10/04 12:20:04;;;;;;;;;;;;;;;19.94;57.50;97450.91;3985067;29;7081;-76
2022/10/04 12:22:29;;;;;;;;;;;;;;;19.96;57.31;97448.78;4019914;29;5925;-76
2022/10/04 12:25:15;;;;;;;;;;;;;;;19.96;57.35;97444.25;4036498;29;6092;-76
2022/10/04 12:27:35;;;;;;;;;;;;;;;19.99;57.52;97453.69;4033789;29;6045;-76
2022/10/04 12:30:19;;;;;;;;;;;;;;;19.98;57.56;97446.69;4029512;29;5920;-76
2022/10/04 12:32:32;;;;;;;;;;;;;;;20.00;57.36;97441.88;4021979;29;6039;-76
2022/10/04 12:34:42;;;;;;;;;;;;;;;20.00;57.63;97440.00;4065183;29;5955;-76
2022/10/04 12:37:20;;;;;;;;;;;;;;;20.02;57.30;97434.41;4068544;29;5994;-76
2022/10/04 12:39:45;;;;;;;;;;;;;;;20.02;57.17;97437.09;4075178;29;5916;-75
2022/10/04 12:41:59;;;;;;;;;;;;;;;20.00;57.34;97431.16;4078940;28;5984;-76
2022/10/04 12:44:18;;;;;;;;;;;;;;;20.04;57.11;97432.28;4105309;28;6171;-76
2022/10/04 12:46:33;;;;;;;;;;;;;;;20.04;57.39;97429.63;4102965;28;5911;-76
2022/10/04 12:48:47;;;;;;;;;;;;;;;20.06;56.89;97427.53;4108875;28;5894;-76
2022/10/04 12:51:00;;;;;;;;;;;;;;;20.06;56.90;97422.16;4101605;28;5885;-76
2022/10/04 12:53:18;;;;;;;;;;;;;;;20.08;57.04;97419.25;4094795;28;5898;-76
2022/10/04 12:55:26;;;;;;;;;;;;;;;20.06;57.18;97416.78;4104116;28;5866;-75
2022/10/04 12:57:47;;;;;;;;;;;;;;;20.08;57.09;97413.88;4179611;28;5869;-76
2022/10/04 13:00:05;;;;;;;;;;;;;;;20.09;56.80;97416.31;4179214;28;5779;-77
2022/10/04 13:02:28;;;;;;;;;;;;;;;20.10;56.96;97409.88;4170546;28;5828;-76
2022/10/04 13:04:38;;;;;;;;;;;;;;;20.12;56.55;97415.81;4165277;28;5744;-76
2022/10/04 13:06:55;;;;;;;;;;;;;;;20.14;56.75;97408.34;4180769;28;5733;-75
2022/10/04 13:09:06;;;;;;;;;;;;;;;20.15;56.72;97412.66;4173352;28;5674;-76
2022/10/04 13:11:22;;;;;;;;;;;;;;;20.15;56.71;97407.28;4175754;28;5770;-76
2022/10/04 13:13:56;;;;;;;;;;;;;;;20.16;56.52;97408.94;4173806;28;5690;-75
2022/10/04 13:16:11;;;;;;;;;;;;;;;20.19;56.85;97411.16;4177332;28;5794;-76
2022/10/04 13:18:45;;;;;;;;;;;;;;;20.20;56.56;97411.97;4182572;28;5830;-76
2022/10/04 13:20:59;;;;;;;;;;;;;;;20.22;56.40;97410.66;4178493;28;5879;-76
2022/10/04 13:23:14;;;;;;;;;;;;;;;20.23;56.45;97409.59;4177845;28;5790;-76
2022/10/04 13:25:40;;;;;;;;;;;;;;;20.25;56.45;97409.34;4169855;28;5879;-76
2022/10/04 13:27:49;;;;;;;;;;;;;;;20.26;56.55;97403.75;4179013;28;5712;-76
2022/10/04 13:30:01;;;;;;;;;;;;;;;20.25;56.53;97399.44;4181983;28;5691;-76
2022/10/04 13:32:13;;;;;;;;;;;;;;;20.22;56.26;97397.22;4183112;28;5714;-75
2022/10/04 13:34:30;;;;;;;;;;;;;;;20.24;56.12;97397.81;4185268;28;5721;-75
2022/10/04 13:36:49;;;;;;;;;;;;;;;20.23;56.30;97398.84;4182419;28;6299;-76
2022/10/04 13:39:20;;;;;;;;;;;;;;;20.24;56.33;97394.31;4179677;28;5997;-75
2022/10/04 13:41:37;;;;;;;;;;;;;;;20.25;55.92;97388.69;4184118;28;5703;-76
2022/10/04 13:44:10;;;;;;;;;;;;;;;20.26;56.08;97386.81;4179776;28;5736;-76
2022/10/04 13:46:27;;;;;;;;;;;;;;;20.25;56.17;97387.88;4182215;28;5092;-77
2022/10/04 13:48:40;;;;;;;;;;;;;;;20.25;55.89;97388.69;4178620;28;5748;-76
2022/10/04 13:50:57;;;;;;;;;;;;;;;20.27;56.00;97381.25;4185088;28;5639;-77
2022/10/04 13:58:22;;;;;;;;;;;;;;;20.30;55.56;97391.50;4185779;28;5710;-77
2022/10/04 14:00:47;;;;;;;;;;;;;;;20.31;55.90;97386.94;4192940;28;5879;-75
2022/10/04 14:03:19;;;;;;;;;;;;;;;20.32;55.73;97383.19;4179885;28;8698;-76
2022/10/04 14:05:59;;;;;;;;;;;;;;;20.32;55.51;97384.00;4186247;28;5929;-75
2022/10/04 14:08:36;;;;;;;;;;;;;;;20.35;55.32;97391.56;4143803;28;5918;-76
2022/10/04 14:10:59;;;;;;;;;;;;;;;20.34;55.72;97391.81;4184736;28;5850;-76
2022/10/04 14:13:39;;;;;;;;;;;;;;;20.36;55.57;97384.31;4175154;28;5831;-76
2022/10/04 14:16:00;;;;;;;;;;;;;;;20.37;55.33;97385.94;4182949;28;5708;-75
2022/10/04 14:18:27;;;;;;;;;;;;;;;20.35;55.33;97386.19;4179312;28;6396;-75
2022/10/04 14:21:04;;;;;;;;;;;;;;;20.38;55.16;97384.91;4182614;28;5838;-76
2022/10/04 14:23:27;;;;;;;;;;;;;;;20.37;55.59;97388.63;4180444;28;5731;-75
2022/10/04 14:26:16;;;;;;;;;;;;;;;20.40;55.38;97390.06;4185838;28;5703;-73
2022/10/04 14:28:44;;;;;;;;;;;;;;;20.40;55.36;97395.41;4178051;28;5723;-73
2022/10/04 14:31:02;;;;;;;;;;;;;;;20.39;55.13;97383.06;4183485;28;5704;-72
2022/10/04 14:33:46;;;;;;;;;;;;;;;20.40;55.13;97387.38;4176393;28;5707;-73
2022/10/04 14:35:55;;;;;;;;;;;;;;;20.40;55.12;97390.88;4178214;28;5744;-73
2022/10/04 14:38:46;;;;;;;;;;;;;;;20.39;55.03;97383.06;4185849;28;5786;-72
2022/10/04 14:41:16;;;;;;;;;;;;;;;20.36;55.06;97384.31;4165748;28;6010;-72
2022/10/04 14:43:57;;;;;;;;;;;;;;;20.33;55.24;97388.31;4146515;28;5724;-73
2022/10/04 14:46:15;;;;;;;;;;;;;;;20.33;55.04;97388.31;4182652;28;5902;-73
2022/10/04 14:48:42;;;;;;;;;;;;;;;20.32;55.13;97385.88;4176377;28;5842;-76
2022/10/04 14:50:57;;;;;;;;;;;;;;;20.30;54.98;97385.31;4181515;28;5890;-72
2022/10/04 14:53:16;;;;;;;;;;;;;;;20.30;55.07;97385.31;4181240;28;6243;-73
2022/10/04 14:55:38;;;;;;;;;;;;;;;20.29;54.93;97381.00;4182681;28;7737;-74
2022/10/04 14:58:02;;;;;;;;;;;;;;;20.31;54.87;97386.94;4181954;28;5823;-77
2022/10/04 15:00:16;;;;;;;;;;;;;;;20.32;55.16;97375.94;4176233;28;5848;-75
2022/10/04 15:02:47;;;;;;;;;;;;;;;20.34;55.03;97373.84;4176148;28;5820;-75
2022/10/04 15:05:19;;;;;;;;;;;;;;;20.34;54.71;97375.69;4177795;28;5755;-78
2022/10/04 15:07:30;;;;;;;;;;;;;;;20.32;55.18;97378.63;4180538;28;5842;-74
2022/10/04 15:09:52;;;;;;;;;;;;;;;20.33;54.89;97374.06;4182318;28;5674;-74
2022/10/04 15:12:00;;;;;;;;;;;;;;;20.35;54.82;97378.13;4178137;28;5736;-74
2022/10/04 15:14:34;;;;;;;;;;;;;;;20.36;54.92;97376.28;4181720;28;5708;-77
2022/10/04 15:16:46;;;;;;;;;;;;;;;20.38;55.25;97382.22;4182326;28;6513;-75
2022/10/04 15:18:54;;;;;;;;;;;;;;;20.38;55.37;97378.72;4180817;28;5791;-75
2022/10/04 15:21:05;;;;;;;;;;;;;;;20.40;54.73;97379.31;4181763;28;5829;-76
2022/10/04 15:23:16;;;;;;;;;;;;;;;20.40;54.87;97372.06;4181799;28;5893;-77
2022/10/04 15:25:40;;;;;;;;;;;;;;;20.41;54.84;97372.88;4181478;28;5769;-76
2022/10/04 15:27:57;;;;;;;;;;;;;;;20.40;54.94;97380.13;4179300;28;5807;-75
2022/10/04 15:30:11;;;;;;;;;;;;;;;20.40;54.83;97373.94;4180875;28;5726;-76
2022/10/04 15:32:24;;;;;;;;;;;;;;;20.40;55.07;97374.75;4180819;28;5776;-75
2022/10/04 15:34:34;;;;;;;;;;;;;;;20.41;54.93;97376.38;4181183;28;5744;-75
2022/10/04 15:39:42;;;;;;;;;;;;;;;20.44;54.86;97365.19;4182096;28;6457;-74
2022/10/04 15:41:51;;;;;;;;;;;;;;;20.43;54.72;97368.09;4177981;28;5802;-75
2022/10/04 15:44:28;;;;;;;;;;;;;;;20.44;54.72;97361.69;4179476;28;5717;-74
2022/10/04 15:46:45;;;;;;;;;;;;;;;20.45;54.56;97366.00;4180989;28;5848;-75
2022/10/04 15:49:20;;;;;;;;;;;;;;;20.44;54.77;97361.69;4174972;28;6441;-74
2022/10/04 15:51:43;;;;;;;;;;;;;;;20.42;54.84;97351.19;4174454;28;5776;-73
2022/10/04 15:54:11;;;;;;;;;;;;;;;20.42;55.04;97351.19;4177300;28;5833;-76
2022/10/04 15:56:26;;;;;;;;;;;;;;;20.44;54.69;97354.44;4175005;28;5752;-75
2022/10/04 15:59:01;;;;;;;;;;;;;;;20.44;54.93;97345.56;4178876;28;5896;-76
2022/10/04 16:01:28;;;;;;;;;;;;;;;20.44;54.84;97338.31;4176530;28;5682;-74
2022/10/04 16:03:44;;;;;;;;;;;;;;;20.45;54.88;97344.50;4151375;28;5821;-75
2022/10/04 16:06:01;;;;;;;;;;;;;;;20.43;54.71;97335.88;4178711;28;5906;-75
2022/10/04 16:08:29;;;;;;;;;;;;;;;20.40;55.00;97329.09;4177532;28;5850;-75
2022/10/04 16:10:59;;;;;;;;;;;;;;;20.42;54.77;97344.97;4180940;28;6441;-74
2022/10/04 16:13:32;;;;;;;;;;;;;;;20.41;54.78;97337.97;4177488;28;5890;-76
2022/10/04 16:15:37;;;;;;;;;;;;;;;20.40;54.99;97341.72;4177066;28;5827;-76
2022/10/04 16:18:04;;;;;;;;;;;;;;;20.38;54.91;97338.44;4177031;28;6549;-75
2022/10/04 16:20:33;;;;;;;;;;;;;;;20.37;54.90;97337.63;4176052;28;5893;-74
2022/10/04 16:22:37;;;;;;;;;;;;;;;20.38;54.81;97349.16;4175543;28;5873;-74
2022/10/04 16:24:46;;;;;;;;;;;;;;;20.36;55.10;97352.09;4177155;28;5837;-74
2022/10/04 16:27:19;;;;;;;;;;;;;;;20.36;55.21;97344.06;4173753;28;5886;-75
2022/10/04 16:29:34;;;;;;;;;;;;;;;20.35;54.91;97345.91;4161631;28;5884;-76
2022/10/04 16:31:48;;;;;;;;;;;;;;;20.35;54.81;97351.28;4176519;28;5711;-75
2022/10/04 16:34:08;;;;;;;;;;;;;;;20.34;55.02;97338.94;4177860;28;5842;-75
2022/10/04 16:36:16;;;;;;;;;;;;;;;20.35;54.74;97350.47;4177827;28;5917;-75
2022/10/04 16:38:24;;;;;;;;;;;;;;;20.34;55.03;97348.84;4178981;28;5771;-75
2022/10/04 16:40:34;;;;;;;;;;;;;;;20.32;55.02;97362.53;4172572;28;5918;-75
2022/10/04 16:42:52;;;;;;;;;;;;;;;20.32;55.11;97351.78;4174821;28;5777;-74
2022/10/04 16:45:01;;;;;;;;;;;;;;;20.30;55.19;97361.94;4170504;28;5748;-74
2022/10/04 16:47:22;;;;;;;;;;;;;;;20.28;55.30;97361.38;4174262;28;6097;-84
2022/10/04 16:53:25;;;;;;;;;;;;;;;20.19;55.38;97354.78;4090354;28;5833;-84
2022/10/04 16:55:42;;;;;;;;;;;;;;;20.18;55.15;97357.69;4077120;28;5883;-73
2022/10/04 16:58:16;;;;;;;;;;;;;;;20.17;55.58;97367.63;4070642;29;5917;-70
2022/10/04 17:00:33;;;;;;;;;;;;;;;20.13;55.55;97371.81;4086783;28;5909;-71
2022/10/04 17:03:09;;;;;;;;;;;;;;;20.14;55.49;97364.59;4072230;28;5951;-72
2022/10/04 17:05:32;;;;;;;;;;;;;;;20.08;55.61;97363.69;4085551;28;5910;-73
2022/10/04 17:07:51;;;;;;;;;;;;;;;20.12;55.43;97377.44;4084399;28;5875;-71
2022/10/04 17:10:02;;;;;;;;;;;;;;;20.08;55.45;97369.06;4090814;28;5850;-75
2022/10/04 17:12:17;;;;;;;;;;;;;;;20.06;55.60;97371.97;4087290;28;5891;-83
2022/10/04 17:14:51;;;;;;;;;;;;;;;20.03;55.55;97366.25;4091062;28;5931;-75
2022/10/04 17:16:56;;;;;;;;;;;;;;;20.04;55.39;97376.75;4093298;28;5850;-70
2022/10/04 17:19:29;;;;;;;;;;;;;;;20.03;55.78;97383.16;4079194;28;6018;-72
2022/10/04 17:21:45;;;;;;;;;;;;;;;20.02;55.67;97383.41;4088296;28;5949;-70
2022/10/04 17:24:22;;;;;;;;;;;;;;;20.01;55.52;97392.53;4148745;28;5905;-71
2022/10/04 17:26:40;;;;;;;;;;;;;;;19.99;55.96;97391.94;4173028;28;5850;-71
2022/10/04 17:28:55;;;;;;;;;;;;;;;19.97;55.79;97391.38;4178079;28;5135;-68
2022/10/04 17:31:11;;;;;;;;;;;;;;;19.95;55.57;97393.50;4173993;28;5845;-72
2022/10/04 17:33:35;;;;;;;;;;;;;;;19.95;55.74;97398.84;4175443;28;5715;-72
2022/10/04 17:36:13;;;;;;;;;;;;;;;19.94;55.86;97399.91;4177564;28;5741;-76
2022/10/04 17:38:23;;;;;;;;;;;;;;;19.94;55.93;97402.59;4164283;28;5883;-71
2022/10/04 17:40:46;;;;;;;;;;;;;;;19.93;55.84;97406.31;4173840;28;5700;-71
2022/10/04 17:42:59;;;;;;;;;;;;;;;19.92;56.03;97412.72;4175863;28;5833;-70
2022/10/04 17:45:25;;;;;;;;;;;;;;;19.90;56.16;97406.78;4171056;28;5901;-69
2022/10/04 17:55:17;;;;;;;;;;;;;;;19.86;56.11;97422.56;4176744;28;5774;-86
2022/10/04 17:57:29;;;;;;;;;;;;;;;19.86;56.25;97432.47;4178632;28;5923;-78
2022/10/04 17:59:46;;;;;;;;;;;;;;;19.80;56.36;97428.03;4169745;28;6294;-76
2022/10/04 18:01:54;;;;;;;;;;;;;;;19.83;56.42;97424.91;4169061;28;5780;-76
2022/10/04 18:04:08;;;;;;;;;;;;;;;19.81;56.45;97435.84;4170223;28;5734;-73
2022/10/04 18:06:20;;;;;;;;;;;;;;;19.81;56.23;97440.41;4174995;28;5723;-73
2022/10/04 18:08:42;;;;;;;;;;;;;;;19.81;56.21;97440.41;4178357;28;5774;-72
2022/10/04 18:10:50;;;;;;;;;;;;;;;19.80;56.19;97441.44;4177148;28;5724;-72
2022/10/04 18:12:59;;;;;;;;;;;;;;;19.75;56.54;97432.25;4174873;28;5711;-75
2022/10/04 18:15:10;;;;;;;;;;;;;;;19.79;56.33;97440.63;4172618;28;5969;-73
2022/10/04 18:17:27;;;;;;;;;;;;;;;19.76;56.34;97444.63;4169956;28;5926;-78
2022/10/04 18:19:43;;;;;;;;;;;;;;;19.76;56.44;97443.81;4176556;28;5803;-71
2022/10/04 18:21:51;;;;;;;;;;;;;;;19.73;56.35;97438.91;4179012;28;7311;-76
2022/10/04 18:23:58;;;;;;;;;;;;;;;19.74;56.16;97441.34;4180914;28;5704;-72
2022/10/04 18:26:08;;;;;;;;;;;;;;;19.69;56.27;97429.69;4180378;28;5973;-70